Time;durP1;ratioP1;P1;durP2;ratioP2;P2;SDS_P1;SDS_P2;PMS_P1;PMS_P2;Temp;Humidity;BMP_temperature;BMP_pressure;BME280_temperature;BME280_humidity;BME280_pressure;Samples;Min_cycle;Max_cycle;Signal;HPM_P1;HPM_P2
2021/09/27 00:01:31;;;;;;;44.22;28.60;;;15.80;99.90;;;;;;4982446;28;20384;-77
2021/09/27 00:03:57;;;;;;;39.78;27.42;;;15.90;99.90;;;;;;4982613;28;20450;-76
2021/09/27 00:06:23;;;;;;;37.75;26.60;;;15.80;99.90;;;;;;4982060;28;20802;-77
2021/09/27 00:08:48;;;;;;;40.20;26.35;;;15.80;99.90;;;;;;4986255;28;20403;-77
2021/09/27 00:11:20;;;;;;;44.73;27.60;;;15.90;99.90;;;;;;4987486;28;20442;-76
2021/09/27 00:13:48;;;;;;;37.60;26.92;;;15.80;99.90;;;;;;4989678;28;20380;-76
2021/09/27 00:16:14;;;;;;;41.47;26.88;;;15.80;99.90;;;;;;4991356;28;20392;-76
2021/09/27 00:18:41;;;;;;;39.92;25.65;;;15.80;99.90;;;;;;4990525;28;20388;-77
2021/09/27 00:21:12;;;;;;;38.88;26.70;;;15.80;99.90;;;;;;4985216;28;20528;-76
2021/09/27 00:23:38;;;;;;;41.90;27.30;;;15.80;99.90;;;;;;4981508;28;20427;-76
2021/09/27 00:26:05;;;;;;;38.03;26.17;;;15.80;99.90;;;;;;4991999;28;20436;-76
2021/09/27 00:28:31;;;;;;;38.90;27.15;;;15.80;99.90;;;;;;4992156;28;20392;-77
2021/09/27 00:30:56;;;;;;;38.40;26.45;;;15.80;99.90;;;;;;4990043;28;20417;-76
2021/09/27 00:33:23;;;;;;;41.80;27.70;;;15.70;99.90;;;;;;4988733;28;20408;-76
2021/09/27 00:35:49;;;;;;;40.05;27.50;;;15.70;99.90;;;;;;4988808;28;20473;-75
2021/09/27 00:38:16;;;;;;;40.90;26.13;;;15.60;99.90;;;;;;4981501;28;20845;-76
2021/09/27 00:40:46;;;;;;;38.60;26.60;;;15.70;99.90;;;;;;4975793;28;20411;-76
2021/09/27 00:43:13;;;;;;;41.35;29.00;;;15.70;99.90;;;;;;4985908;28;20758;-75
2021/09/27 00:45:43;;;;;;;39.33;26.90;;;15.70;99.90;;;;;;4977705;28;20450;-75
2021/09/27 00:48:10;;;;;;;42.95;27.70;;;15.60;99.90;;;;;;4975266;28;20452;-75
2021/09/27 00:50:39;;;;;;;42.43;28.47;;;15.70;99.90;;;;;;4979683;28;20463;-75
2021/09/27 00:53:14;;;;;;;41.78;28.35;;;15.80;99.90;;;;;;4977771;28;20454;-75
2021/09/27 00:55:41;;;;;;;42.28;28.10;;;15.80;99.90;;;;;;4979585;28;20404;-74
2021/09/27 00:58:06;;;;;;;43.00;27.15;;;15.80;99.90;;;;;;4978048;28;20400;-75
2021/09/27 01:00:32;;;;;;;40.73;28.93;;;15.80;99.90;;;;;;4982305;28;20404;-76
2021/09/27 01:02:58;;;;;;;42.23;28.00;;;15.70;99.90;;;;;;4977468;28;20388;-75
2021/09/27 01:05:24;;;;;;;43.63;27.88;;;15.80;99.90;;;;;;4979339;28;20399;-74
2021/09/27 01:08:00;;;;;;;41.03;27.30;;;15.70;99.90;;;;;;4977794;28;20839;-76
2021/09/27 01:10:58;;;;;;;39.50;26.87;;;15.70;99.90;;;;;;4973625;28;20412;-75
2021/09/27 01:13:55;;;;;;;36.65;26.40;;;15.70;99.90;;;;;;4974446;28;20431;-75
2021/09/27 01:16:44;;;;;;;41.05;27.58;;;15.70;99.90;;;;;;4992266;28;20596;-75
2021/09/27 01:19:21;;;;;;;43.30;27.63;;;15.70;99.90;;;;;;4990352;28;20404;-75
2021/09/27 01:22:13;;;;;;;38.73;26.70;;;15.60;99.90;;;;;;4972516;28;20459;-75
2021/09/27 01:25:01;;;;;;;37.67;26.92;;;15.70;99.90;;;;;;4974868;28;20450;-76
2021/09/27 01:27:51;;;;;;;41.30;27.60;;;15.70;99.90;;;;;;4972316;28;20805;-75
2021/09/27 01:30:17;;;;;;;42.30;26.92;;;15.70;99.90;;;;;;4953849;28;20981;-75
2021/09/27 01:33:06;;;;;;;39.90;27.10;;;15.70;99.90;;;;;;4976067;28;20432;-75
2021/09/27 01:35:31;;;;;;;37.40;25.92;;;15.70;99.90;;;;;;4956767;28;20397;-75
2021/09/27 01:38:30;;;;;;;38.90;26.42;;;15.70;99.90;;;;;;4958235;28;20386;-75
2021/09/27 01:41:08;;;;;;;36.33;25.97;;;15.60;99.90;;;;;;4962672;28;20971;-75
2021/09/27 01:43:43;;;;;;;38.85;25.08;;;15.60;99.90;;;;;;4956071;28;20394;-76
2021/09/27 01:46:30;;;;;;;36.72;25.75;;;15.60;99.90;;;;;;4967567;28;20494;-75
2021/09/27 01:49:11;;;;;;;38.95;25.92;;;15.50;99.90;;;;;;4970451;28;20407;-77
2021/09/27 01:51:51;;;;;;;37.42;25.25;;;15.50;99.90;;;;;;4969561;28;20418;-75
2021/09/27 01:54:37;;;;;;;37.33;25.52;;;15.50;99.90;;;;;;4967395;28;20401;-75
2021/09/27 01:57:34;;;;;;;37.80;25.17;;;15.50;99.90;;;;;;4967872;28;20947;-74
2021/09/27 02:00:11;;;;;;;37.50;25.65;;;15.50;99.90;;;;;;4972481;28;20408;-75
2021/09/27 02:02:58;;;;;;;35.70;24.05;;;15.60;99.90;;;;;;4973556;28;20762;-74
2021/09/27 02:05:49;;;;;;;37.55;24.95;;;15.50;99.90;;;;;;4973789;28;20396;-75
2021/09/27 02:08:27;;;;;;;37.70;25.92;;;15.40;99.90;;;;;;4969434;28;20481;-75
2021/09/27 02:11:10;;;;;;;37.20;24.90;;;15.40;99.90;;;;;;4962095;28;20405;-75
2021/09/27 02:14:06;;;;;;;40.80;25.15;;;15.40;99.90;;;;;;4956642;28;20436;-77
2021/09/27 02:16:53;;;;;;;38.60;25.50;;;15.40;99.90;;;;;;4976693;28;20452;-77
2021/09/27 02:19:43;;;;;;;34.55;24.95;;;15.40;99.90;;;;;;4974738;28;20404;-74
2021/09/27 02:22:16;;;;;;;36.80;25.40;;;15.40;99.90;;;;;;4967920;28;20497;-73
2021/09/27 02:24:50;;;;;;;37.78;25.33;;;15.40;99.90;;;;;;4974263;28;20384;-76
2021/09/27 02:27:16;;;;;;;37.77;25.40;;;15.40;99.90;;;;;;4975039;28;20403;-76
2021/09/27 02:29:42;;;;;;;36.93;25.73;;;15.50;99.90;;;;;;4974132;28;20396;-75
2021/09/27 02:32:20;;;;;;;41.60;25.73;;;15.60;99.90;;;;;;4973014;28;20751;-76
2021/09/27 02:35:04;;;;;;;37.95;24.08;;;15.70;99.90;;;;;;4972867;28;20408;-75
2021/09/27 02:37:55;;;;;;;35.08;24.25;;;15.90;99.90;;;;;;4972639;28;20408;-76
2021/09/27 02:40:31;;;;;;;40.37;24.10;;;16.00;99.90;;;;;;4973208;28;20454;-75
2021/09/27 02:43:00;;;;;;;33.13;22.45;;;16.10;99.90;;;;;;4972747;28;20402;-74
2021/09/27 02:45:27;;;;;;;34.03;22.50;;;16.10;99.90;;;;;;4973035;28;20745;-74
2021/09/27 02:48:01;;;;;;;33.22;22.90;;;16.10;99.90;;;;;;4973668;28;20392;-75
2021/09/27 02:50:30;;;;;;;34.45;22.13;;;16.20;99.90;;;;;;4983474;28;20440;-75
2021/09/27 02:52:57;;;;;;;33.70;22.87;;;16.20;99.90;;;;;;4985067;28;20399;-76
2021/09/27 02:55:35;;;;;;;37.13;22.77;;;16.30;99.90;;;;;;4976091;28;20428;-76
2021/09/27 02:58:04;;;;;;;32.50;21.48;;;16.30;99.90;;;;;;4975136;28;20419;-76
2021/09/27 03:00:56;;;;;;;35.25;21.55;;;16.20;99.90;;;;;;4973350;28;20404;-76
2021/09/27 03:03:39;;;;;;;33.30;21.90;;;16.30;99.90;;;;;;4972773;28;20451;-75
2021/09/27 03:06:29;;;;;;;29.67;21.10;;;16.30;99.90;;;;;;4971858;28;20971;-76
2021/09/27 03:09:06;;;;;;;28.60;20.20;;;16.40;99.90;;;;;;4973141;28;20403;-76
2021/09/27 03:12:03;;;;;;;34.63;22.15;;;16.30;99.90;;;;;;4973904;28;20416;-76
2021/09/27 03:14:50;;;;;;;27.90;20.60;;;16.40;99.90;;;;;;4972214;28;20408;-75
2021/09/27 03:17:45;;;;;;;29.00;22.08;;;16.40;99.80;;;;;;4973822;28;20395;-76
2021/09/27 03:20:51;;;;;;;31.85;20.80;;;16.40;99.50;;;;;;4973457;28;20403;-76
2021/09/27 03:23:36;;;;;;;29.00;20.50;;;16.30;97.40;;;;;;4973004;28;20423;-75
2021/09/27 03:26:43;;;;;;;30.63;20.90;;;16.10;99.90;;;;;;4975417;28;20798;-74
2021/09/27 03:29:25;;;;;;;30.55;20.95;;;16.00;99.90;;;;;;4975663;28;20389;-75
2021/09/27 03:31:50;;;;;;;33.08;21.80;;;15.90;99.90;;;;;;4974521;28;20773;-75
2021/09/27 03:34:44;;;;;;;35.00;22.20;;;15.80;99.90;;;;;;4972911;28;20483;-74
2021/09/27 03:37:34;;;;;;;33.70;21.35;;;15.80;99.90;;;;;;4967289;28;20494;-75
2021/09/27 03:40:19;;;;;;;33.08;21.25;;;15.70;99.90;;;;;;4972468;28;20427;-75
2021/09/27 03:42:53;;;;;;;32.05;21.75;;;15.70;99.90;;;;;;4972065;28;20916;-74
2021/09/27 03:45:27;;;;;;;34.10;23.42;;;15.70;99.90;;;;;;4972214;28;20392;-74
2021/09/27 03:48:18;;;;;;;33.03;22.80;;;15.60;99.90;;;;;;4972057;28;20413;-75
2021/09/27 03:50:53;;;;;;;31.92;21.48;;;15.50;99.90;;;;;;4971830;28;20416;-74
2021/09/27 03:53:51;;;;;;;33.60;22.52;;;15.50;99.90;;;;;;4953732;28;20394;-75
2021/09/27 03:56:27;;;;;;;31.60;21.60;;;15.40;99.90;;;;;;4937612;28;20473;-75
2021/09/27 03:59:05;;;;;;;34.45;22.90;;;15.40;99.90;;;;;;4958039;28;20408;-75
2021/09/27 04:01:48;;;;;;;36.08;23.70;;;15.40;99.90;;;;;;4972433;28;20447;-76
2021/09/27 04:04:38;;;;;;;36.03;22.58;;;15.40;99.90;;;;;;4972820;28;20940;-75
2021/09/27 04:07:25;;;;;;;33.35;22.45;;;15.40;99.90;;;;;;4972227;28;20419;-75
2021/09/27 04:10:03;;;;;;;33.78;22.05;;;15.30;99.90;;;;;;4973232;28;20829;-76
2021/09/27 04:12:55;;;;;;;31.38;22.15;;;15.30;99.90;;;;;;4972625;28;20408;-76
2021/09/27 04:15:38;;;;;;;33.08;21.50;;;15.40;99.90;;;;;;4973323;28;20459;-76
2021/09/27 04:18:04;;;;;;;33.63;22.40;;;15.30;99.90;;;;;;4974289;28;20411;-75
2021/09/27 04:20:45;;;;;;;27.83;20.93;;;15.30;99.90;;;;;;4972537;28;20404;-77
2021/09/27 04:23:35;;;;;;;30.80;21.30;;;15.30;99.90;;;;;;4977580;28;20387;-75
2021/09/27 04:26:10;;;;;;;32.67;21.67;;;15.30;99.90;;;;;;4978439;28;20412;-77
2021/09/27 04:28:55;;;;;;;34.42;21.25;;;15.40;99.90;;;;;;4973109;28;20430;-76
2021/09/27 04:31:32;;;;;;;34.45;21.17;;;15.40;99.90;;;;;;4972936;28;20412;-76
2021/09/27 04:34:17;;;;;;;30.02;20.60;;;15.60;99.90;;;;;;4970266;28;20802;-74
2021/09/27 04:36:46;;;;;;;29.30;20.10;;;15.60;99.90;;;;;;4972156;28;20477;-75
2021/09/27 04:39:18;;;;;;;30.85;19.92;;;15.70;99.90;;;;;;4972375;28;20385;-76
2021/09/27 04:41:56;;;;;;;28.02;19.05;;;15.80;99.90;;;;;;4971496;28;20384;-76
2021/09/27 04:45:01;;;;;;;26.02;19.33;;;15.70;99.90;;;;;;4972336;28;20415;-74
2021/09/27 04:48:06;;;;;;;28.52;18.83;;;15.80;99.90;;;;;;4974808;28;20412;-74
2021/09/27 04:51:09;;;;;;;28.13;18.52;;;15.80;99.90;;;;;;4976567;28;20445;-76
2021/09/27 04:53:39;;;;;;;28.13;18.90;;;15.80;99.90;;;;;;4974917;28;20438;-75
2021/09/27 04:56:18;;;;;;;29.67;18.65;;;15.90;99.90;;;;;;4975194;28;20388;-76
2021/09/27 04:59:01;;;;;;;25.60;17.80;;;16.00;99.90;;;;;;4975688;28;20472;-75
2021/09/27 05:01:48;;;;;;;22.27;17.50;;;16.10;99.90;;;;;;4975563;28;20498;-75
2021/09/27 05:04:44;;;;;;;26.65;17.65;;;16.20;99.90;;;;;;4979413;28;20387;-78
2021/09/27 05:07:36;;;;;;;26.02;16.85;;;16.30;97.90;;;;;;4960111;28;20405;-78
2021/09/27 05:10:26;;;;;;;23.45;16.33;;;16.40;94.00;;;;;;4976323;28;20483;-76
2021/09/27 05:13:13;;;;;;;24.75;16.17;;;16.40;94.00;;;;;;4985804;28;20503;-75
2021/09/27 05:16:14;;;;;;;24.33;17.00;;;16.30;94.60;;;;;;4980468;28;20431;-78
2021/09/27 05:19:08;;;;;;;23.38;15.63;;;16.40;94.10;;;;;;4937111;29;20410;-77
2021/09/27 05:22:00;;;;;;;20.17;15.35;;;16.50;91.70;;;;;;4974421;28;20427;-76
2021/09/27 05:25:01;;;;;;;22.05;15.60;;;16.50;91.60;;;;;;4980658;28;20819;-75
2021/09/27 05:28:11;;;;;;;18.67;14.10;;;16.50;91.40;;;;;;4966753;28;20463;-77
2021/09/27 05:31:01;;;;;;;20.40;15.30;;;16.50;89.80;;;;;;4926594;29;20961;-77
2021/09/27 05:33:44;;;;;;;19.83;16.15;;;16.50;88.80;;;;;;4961995;28;20836;-79
2021/09/27 05:36:29;;;;;;;20.02;15.13;;;16.50;88.10;;;;;;4967733;28;20408;-80
2021/09/27 05:39:20;;;;;;;24.05;15.15;;;16.50;88.40;;;;;;4962941;28;20382;-77
2021/09/27 05:42:23;;;;;;;21.88;14.55;;;16.50;88.60;;;;;;4968877;28;20390;-78
2021/09/27 05:44:58;;;;;;;21.73;15.45;;;16.60;87.00;;;;;;4957286;28;20420;-77
2021/09/27 05:47:36;;;;;;;25.30;16.40;;;16.70;85.40;;;;;;4976076;28;20747;-78
2021/09/27 05:50:19;;;;;;;22.48;14.80;;;16.80;83.60;;;;;;4977955;28;20404;-78
2021/09/27 05:52:59;;;;;;;22.38;14.90;;;16.90;81.10;;;;;;4968596;28;20475;-77
2021/09/27 05:55:50;;;;;;;21.48;16.00;;;16.90;81.20;;;;;;4976000;28;20380;-78
2021/09/27 05:58:26;;;;;;;21.73;14.82;;;16.80;81.70;;;;;;4974681;28;20478;-78
2021/09/27 06:01:01;;;;;;;52.40;33.22;;;16.90;79.70;;;;;;4977555;28;20391;-77
2021/09/27 06:04:01;;;;;;;173.27;117.15;;;17.00;82.20;;;;;;4968773;28;20788;-76
2021/09/27 06:06:39;;;;;;;19.90;14.07;;;17.00;82.40;;;;;;4976596;28;20415;-78
2021/09/27 06:09:35;;;;;;;59.85;38.92;;;17.00;78.90;;;;;;4977004;28;20391;-76
2021/09/27 06:12:19;;;;;;;33.15;22.08;;;17.00;80.00;;;;;;4961330;28;20417;-77
2021/09/27 06:14:46;;;;;;;25.73;14.80;;;17.00;80.90;;;;;;4959704;28;20475;-77
2021/09/27 06:17:26;;;;;;;22.42;14.85;;;17.00;80.60;;;;;;4972554;28;20416;-75
2021/09/27 06:20:06;;;;;;;19.30;13.77;;;17.20;76.40;;;;;;4962311;28;20396;-78
2021/09/27 06:22:56;;;;;;;22.95;15.10;;;17.30;74.60;;;;;;4976094;28;20506;-77
2021/09/27 06:25:45;;;;;;;21.77;15.07;;;17.40;74.40;;;;;;4974482;28;20400;-78
2021/09/27 06:28:37;;;;;;;20.45;15.07;;;17.50;71.40;;;;;;4974927;28;20688;-77
2021/09/27 06:31:29;;;;;;;24.85;15.23;;;17.40;71.70;;;;;;4969618;28;20426;-76
2021/09/27 06:34:01;;;;;;;20.30;15.13;;;17.50;72.00;;;;;;4970028;28;20399;-78
2021/09/27 06:36:32;;;;;;;20.17;15.30;;;17.60;70.60;;;;;;4978242;28;20453;-76
2021/09/27 06:39:01;;;;;;;20.45;14.95;;;17.60;69.30;;;;;;4976693;28;20455;-77
2021/09/27 06:41:29;;;;;;;19.70;14.93;;;17.60;69.70;;;;;;4961143;28;20404;-76
2021/09/27 06:43:55;;;;;;;19.48;14.52;;;17.70;68.40;;;;;;4967667;28;20424;-76
2021/09/27 06:46:21;;;;;;;21.52;15.43;;;17.80;66.80;;;;;;4969030;28;20487;-77
2021/09/27 06:48:48;;;;;;;22.27;15.43;;;17.90;67.50;;;;;;4974636;28;20404;-75
2021/09/27 06:51:13;;;;;;;19.42;14.60;;;18.00;66.10;;;;;;4969036;28;20421;-76
2021/09/27 06:53:39;;;;;;;19.70;14.48;;;18.00;63.20;;;;;;4974670;28;20408;-76
2021/09/27 06:56:05;;;;;;;20.03;15.17;;;18.10;62.30;;;;;;4970736;28;20472;-74
2021/09/27 06:58:31;;;;;;;18.77;13.50;;;18.20;60.30;;;;;;4973879;28;20481;-76
2021/09/27 07:00:57;;;;;;;22.30;14.80;;;18.20;60.20;;;;;;4975597;28;20422;-76
2021/09/27 07:03:23;;;;;;;18.70;14.40;;;18.30;59.60;;;;;;4970065;28;20951;-75
2021/09/27 07:05:50;;;;;;;22.10;14.98;;;18.30;59.40;;;;;;4963699;28;20421;-74
2021/09/27 07:08:18;;;;;;;18.33;14.18;;;18.20;59.50;;;;;;4969552;28;20397;-75
2021/09/27 07:10:45;;;;;;;18.08;14.15;;;18.20;59.70;;;;;;4973982;28;20416;-75
2021/09/27 07:13:12;;;;;;;20.35;14.95;;;18.10;60.00;;;;;;4968931;28;20870;-74
2021/09/27 07:15:38;;;;;;;17.98;13.70;;;18.10;61.40;;;;;;4970025;28;20408;-76
2021/09/27 07:18:03;;;;;;;19.00;14.00;;;18.10;61.30;;;;;;4972166;28;20404;-76
2021/09/27 07:20:29;;;;;;;16.40;13.73;;;18.00;61.30;;;;;;4973628;28;20499;-77
2021/09/27 07:22:57;;;;;;;17.45;13.70;;;18.10;60.40;;;;;;4974568;28;20400;-76
2021/09/27 07:25:24;;;;;;;21.08;14.82;;;18.10;61.80;;;;;;4982229;28;20411;-75
2021/09/27 07:27:50;;;;;;;20.55;14.57;;;18.10;61.40;;;;;;4982125;28;20392;-76
2021/09/27 07:30:16;;;;;;;19.02;14.30;;;18.10;61.90;;;;;;4977235;28;20408;-76
2021/09/27 07:32:42;;;;;;;21.05;14.30;;;18.10;60.90;;;;;;4979079;28;20415;-76
2021/09/27 07:35:11;;;;;;;17.67;13.52;;;18.20;60.50;;;;;;4975392;28;20810;-77
2021/09/27 07:37:38;;;;;;;20.85;15.23;;;18.20;60.50;;;;;;4979988;28;20758;-77
2021/09/27 07:40:07;;;;;;;16.10;13.13;;;18.30;59.90;;;;;;4976938;28;20404;-76
2021/09/27 07:42:32;;;;;;;15.50;12.65;;;18.30;59.90;;;;;;4972933;28;20399;-77
2021/09/27 07:44:58;;;;;;;16.77;13.10;;;18.40;58.30;;;;;;4971327;28;20411;-76
2021/09/27 07:47:24;;;;;;;20.75;13.25;;;18.60;56.60;;;;;;4971887;28;20490;-76
2021/09/27 07:49:49;;;;;;;19.38;13.20;;;18.70;56.20;;;;;;4968785;28;20447;-75
2021/09/27 07:52:15;;;;;;;19.67;13.30;;;18.80;55.70;;;;;;4974490;28;20519;-76
2021/09/27 07:54:41;;;;;;;15.33;12.87;;;18.90;54.90;;;;;;4976149;28;20400;-76
2021/09/27 07:57:06;;;;;;;16.47;12.77;;;19.10;53.30;;;;;;4974644;28;20400;-76
2021/09/27 07:59:32;;;;;;;23.17;13.10;;;19.20;52.30;;;;;;4969147;28;20412;-75
2021/09/27 08:01:58;;;;;;;19.48;12.68;;;19.40;50.70;;;;;;4970489;28;20408;-74
2021/09/27 08:04:23;;;;;;;18.30;13.00;;;19.60;48.80;;;;;;4970671;28;20459;-76
2021/09/27 08:06:49;;;;;;;84.30;19.60;;;19.90;46.90;;;;;;4972158;28;20399;-74
2021/09/27 08:09:14;;;;;;;16.13;11.52;;;20.10;45.40;;;;;;4969777;28;20408;-77
2021/09/27 08:11:42;;;;;;;17.17;11.23;;;20.50;44.50;;;;;;4969063;28;20491;-75
2021/09/27 08:14:12;;;;;;;15.80;11.30;;;20.70;43.30;;;;;;4969598;28;20458;-75
2021/09/27 08:16:38;;;;;;;17.60;11.10;;;20.80;41.90;;;;;;4952552;28;20394;-75
2021/09/27 08:19:06;;;;;;;17.00;12.37;;;20.90;40.30;;;;;;4972007;28;20396;-76
2021/09/27 08:21:32;;;;;;;17.23;11.32;;;20.90;40.50;;;;;;4974504;28;20898;-76
2021/09/27 08:23:57;;;;;;;16.00;11.43;;;20.80;40.10;;;;;;4973974;28;20396;-75
2021/09/27 08:26:23;;;;;;;13.63;11.48;;;20.80;40.80;;;;;;4973918;28;20422;-74
2021/09/27 08:28:50;;;;;;;21.17;11.80;;;20.70;41.30;;;;;;4964767;28;20449;-76
2021/09/27 08:31:20;;;;;;;12.93;10.73;;;20.80;40.70;;;;;;4970947;28;20416;-77
2021/09/27 08:33:47;;;;;;;15.40;10.80;;;20.80;39.60;;;;;;4977518;28;20404;-75
2021/09/27 08:36:14;;;;;;;14.65;11.07;;;20.90;39.10;;;;;;4976862;28;20443;-77
2021/09/27 08:38:41;;;;;;;14.52;11.50;;;20.90;38.90;;;;;;4975691;28;20508;-76
2021/09/27 08:41:30;;;;;;;15.65;11.50;;;20.90;38.90;;;;;;4974028;28;20396;-75
2021/09/27 08:43:59;;;;;;;19.25;11.50;;;21.00;39.00;;;;;;4954447;28;20488;-78
2021/09/27 08:46:33;;;;;;;17.83;10.90;;;21.20;38.20;;;;;;4961653;28;20767;-76
2021/09/27 08:49:21;;;;;;;13.63;11.20;;;21.30;37.70;;;;;;4974872;28;20408;-77
2021/09/27 08:51:47;;;;;;;18.15;11.75;;;21.40;37.20;;;;;;4975751;28;20411;-76
2021/09/27 08:54:18;;;;;;;18.83;11.32;;;21.50;36.90;;;;;;4974186;28;20805;-75
2021/09/27 08:56:58;;;;;;;16.20;10.35;;;21.80;36.70;;;;;;4975005;28;20400;-76
2021/09/27 08:59:44;;;;;;;12.82;9.30;;;22.00;35.00;;;;;;4974581;28;20773;-76
2021/09/27 09:02:47;;;;;;;17.77;10.32;;;22.20;33.90;;;;;;4974662;28;20936;-74
2021/09/27 09:05:25;;;;;;;12.43;9.63;;;21.90;34.50;;;;;;4956009;28;20484;-73
2021/09/27 09:07:54;;;;;;;13.23;10.05;;;21.80;35.80;;;;;;4959197;28;20392;-74
2021/09/27 09:10:51;;;;;;;16.13;10.30;;;21.70;35.70;;;;;;4962074;28;20406;-73
2021/09/27 09:13:23;;;;;;;14.00;9.57;;;21.90;35.50;;;;;;4964375;28;20856;-76
2021/09/27 09:16:01;;;;;;;16.38;11.48;;;21.90;35.20;;;;;;4970500;28;20400;-75
2021/09/27 09:18:32;;;;;;;14.57;9.30;;;21.90;35.50;;;;;;4970829;28;20764;-75
2021/09/27 09:21:07;;;;;;;16.08;9.68;;;21.80;35.40;;;;;;4961868;28;20912;-76
2021/09/27 09:23:38;;;;;;;14.75;9.52;;;21.70;35.10;;;;;;4972554;28;20443;-76
2021/09/27 09:26:08;;;;;;;13.68;8.95;;;21.60;35.50;;;;;;4968076;28;20438;-75
2021/09/27 09:28:35;;;;;;;15.73;9.80;;;21.60;35.70;;;;;;4976277;28;20431;-77
2021/09/27 09:31:07;;;;;;;15.23;9.60;;;21.60;35.60;;;;;;4973330;28;20458;-75
2021/09/27 09:33:37;;;;;;;12.73;8.30;;;21.60;35.50;;;;;;4971337;28;20407;-75
2021/09/27 09:36:03;;;;;;;15.00;9.02;;;21.80;35.60;;;;;;4962927;28;20413;-75
2021/09/27 09:38:34;;;;;;;19.77;8.38;;;22.10;34.50;;;;;;4971162;28;20398;-73
2021/09/27 09:41:01;;;;;;;14.50;8.27;;;22.30;33.40;;;;;;4971535;28;20420;-76
2021/09/27 09:43:26;;;;;;;13.00;8.10;;;22.50;32.60;;;;;;4971663;28;20404;-77
2021/09/27 09:46:03;;;;;;;14.73;8.35;;;22.50;33.10;;;;;;4975401;28;20404;-75
2021/09/27 09:48:29;;;;;;;12.55;7.95;;;22.70;32.50;;;;;;4977291;28;20418;-75
2021/09/27 09:50:59;;;;;;;10.90;8.20;;;22.50;32.50;;;;;;4978791;28;20492;-74
2021/09/27 09:53:32;;;;;;;10.55;7.97;;;22.50;33.10;;;;;;4973368;28;20420;-74
2021/09/27 09:56:09;;;;;;;9.45;7.15;;;22.60;32.40;;;;;;4972130;28;20416;-73
2021/09/27 09:58:42;;;;;;;13.70;7.73;;;22.60;32.70;;;;;;4974899;28;20431;-78
2021/09/27 10:01:25;;;;;;;11.50;7.60;;;22.70;32.60;;;;;;4968612;28;20408;-76
2021/09/27 10:04:09;;;;;;;12.73;7.00;;;22.80;31.70;;;;;;4976700;28;20779;-77
2021/09/27 10:06:47;;;;;;;9.70;7.10;;;22.80;31.60;;;;;;4976650;28;20411;-77
2021/09/27 10:09:35;;;;;;;13.10;7.25;;;22.80;32.10;;;;;;4975610;28;20944;-76
2021/09/27 10:12:12;;;;;;;9.20;6.95;;;22.80;31.70;;;;;;4971738;28;20452;-77
2021/09/27 10:14:40;;;;;;;11.10;6.90;;;22.90;31.80;;;;;;4973565;28;20442;-77
2021/09/27 10:17:27;;;;;;;11.23;6.70;;;23.10;31.90;;;;;;4972680;28;20439;-77
2021/09/27 10:20:08;;;;;;;13.68;6.47;;;23.20;30.60;;;;;;4976388;28;20412;-77
2021/09/27 10:22:39;;;;;;;9.98;6.53;;;23.20;30.40;;;;;;4975531;28;20418;-76
2021/09/27 10:25:35;;;;;;;9.67;6.10;;;23.20;30.30;;;;;;4973604;28;20428;-77
2021/09/27 10:28:03;;;;;;;8.25;6.40;;;23.20;30.80;;;;;;4963186;28;20688;-77
2021/09/27 10:30:46;;;;;;;8.85;5.80;;;23.40;30.00;;;;;;4971376;28;20746;-76
2021/09/27 10:33:36;;;;;;;8.75;5.57;;;23.40;29.50;;;;;;4971251;28;20412;-76
2021/09/27 10:36:07;;;;;;;7.95;5.10;;;23.30;30.20;;;;;;4970135;28;20400;-77
2021/09/27 10:38:42;;;;;;;6.80;5.30;;;23.20;29.90;;;;;;4974264;28;20392;-73
2021/09/27 10:41:20;;;;;;;11.63;6.10;;;22.90;30.70;;;;;;4966006;28;20507;-75
2021/09/27 10:43:48;;;;;;;9.45;5.40;;;22.60;31.50;;;;;;4968279;28;20440;-76
2021/09/27 10:46:18;;;;;;;10.20;5.10;;;22.50;31.90;;;;;;4968697;28;20426;-75
2021/09/27 10:48:50;;;;;;;9.07;5.50;;;22.40;32.40;;;;;;4972089;28;20763;-75
2021/09/27 10:51:17;;;;;;;11.40;5.67;;;22.50;32.60;;;;;;4961445;28;20438;-75
2021/09/27 10:53:49;;;;;;;33.30;6.00;;;22.70;32.10;;;;;;4971964;28;20767;-76
2021/09/27 10:56:39;;;;;;;8.55;5.20;;;22.80;32.00;;;;;;4973048;28;20733;-76
2021/09/27 10:59:13;;;;;;;8.20;5.70;;;23.20;31.10;;;;;;4972173;28;20483;-74
2021/09/27 11:01:56;;;;;;;11.98;5.20;;;23.40;30.00;;;;;;4972536;28;20416;-76
2021/09/27 11:04:23;;;;;;;4.88;4.40;;;23.60;28.90;;;;;;4958480;28;20406;-74
2021/09/27 11:06:56;;;;;;;10.80;5.00;;;23.90;28.40;;;;;;4972328;28;20479;-74
2021/09/27 11:09:25;;;;;;;12.55;4.68;;;24.00;27.90;;;;;;4959482;28;20485;-75
2021/09/27 11:11:53;;;;;;;8.45;3.83;;;24.10;27.90;;;;;;4957778;28;20935;-77
2021/09/27 11:14:42;;;;;;;6.10;4.35;;;24.10;26.50;;;;;;4962880;28;20746;-77
2021/09/27 11:17:26;;;;;;;5.35;4.25;;;24.00;26.60;;;;;;4973152;28;20409;-77
2021/09/27 11:20:16;;;;;;;9.05;4.82;;;23.90;26.70;;;;;;4972654;28;20396;-77
2021/09/27 11:23:07;;;;;;;7.25;4.30;;;23.70;27.80;;;;;;4972526;28;21181;-77
2021/09/27 11:25:37;;;;;;;5.50;4.10;;;23.60;27.30;;;;;;4956013;28;20412;-76
2021/09/27 11:28:08;;;;;;;5.40;3.60;;;23.70;26.80;;;;;;4972091;28;20487;-77
2021/09/27 11:31:07;;;;;;;6.47;3.50;;;23.80;26.10;;;;;;4976542;28;20396;-78
2021/09/27 11:33:32;;;;;;;16.58;4.30;;;23.90;25.90;;;;;;4975153;28;20400;-76
2021/09/27 11:36:13;;;;;;;5.13;3.63;;;23.90;26.00;;;;;;4972529;28;20388;-77
2021/09/27 11:38:41;;;;;;;10.57;4.30;;;24.10;26.00;;;;;;4957140;28;20458;-77
2021/09/27 11:41:10;;;;;;;6.77;3.63;;;24.40;25.00;;;;;;4967470;28;20415;-77
2021/09/27 11:43:45;;;;;;;4.90;3.55;;;24.40;23.40;;;;;;4975690;28;20435;-78
2021/09/27 11:46:23;;;;;;;6.45;3.90;;;24.50;23.50;;;;;;4974117;28;20869;-77
2021/09/27 11:48:56;;;;;;;9.90;4.40;;;24.70;22.70;;;;;;4969512;28;20404;-77
2021/09/27 11:51:27;;;;;;;9.05;3.42;;;25.00;21.80;;;;;;4970763;28;20419;-77
2021/09/27 11:54:11;;;;;;;6.88;3.13;;;25.30;20.40;;;;;;4968982;28;20431;-75
2021/09/27 11:56:51;;;;;;;3.60;2.63;;;25.30;20.20;;;;;;4975291;28;20396;-75
2021/09/27 11:59:27;;;;;;;5.40;3.10;;;25.40;19.90;;;;;;4981228;28;20422;-75
2021/09/27 12:02:08;;;;;;;4.05;3.00;;;25.30;19.60;;;;;;4968255;28;20455;-76
2021/09/27 12:05:02;;;;;;;9.52;3.53;;;25.00;20.40;;;;;;4974231;28;20434;-75
2021/09/27 12:07:56;;;;;;;4.65;3.67;;;25.00;20.90;;;;;;4967867;28;20493;-76
2021/09/27 12:10:27;;;;;;;7.10;3.58;;;24.50;22.20;;;;;;4929503;28;20417;-76
2021/09/27 12:12:59;;;;;;;7.15;4.18;;;24.20;23.00;;;;;;4971553;28;20466;-76
2021/09/27 12:15:30;;;;;;;9.68;3.70;;;23.80;23.80;;;;;;4981744;28;20477;-74
2021/09/27 12:17:56;;;;;;;4.88;4.18;;;23.50;24.60;;;;;;4970696;28;20741;-73
2021/09/27 12:20:26;;;;;;;6.75;4.00;;;23.50;25.30;;;;;;4970561;28;20400;-73
2021/09/27 12:23:00;;;;;;;10.00;3.83;;;23.40;25.30;;;;;;4966362;28;20427;-73
2021/09/27 12:25:33;;;;;;;5.80;3.65;;;23.60;25.10;;;;;;4972228;28;20404;-72
2021/09/27 12:28:05;;;;;;;4.82;3.60;;;23.60;24.90;;;;;;4970032;28;20404;-76
2021/09/27 12:30:33;;;;;;;6.50;3.42;;;23.90;24.20;;;;;;4976776;28;20403;-76
2021/09/27 12:33:08;;;;;;;6.20;3.30;;;23.90;24.00;;;;;;4978989;28;20397;-77
2021/09/27 12:35:41;;;;;;;6.30;3.38;;;23.90;24.00;;;;;;4972560;28;20494;-77
2021/09/27 12:38:07;;;;;;;4.53;3.50;;;24.00;24.10;;;;;;4964846;28;20412;-77
2021/09/27 12:40:40;;;;;;;5.82;3.30;;;23.90;24.00;;;;;;4970540;28;20774;-76
2021/09/27 12:43:22;;;;;;;7.03;3.30;;;24.00;23.80;;;;;;4974133;28;20388;-75
2021/09/27 12:45:58;;;;;;;5.40;3.30;;;24.10;23.10;;;;;;4975114;28;20953;-77
2021/09/27 12:48:25;;;;;;;14.33;5.00;;;24.30;22.80;;;;;;4975121;28;20459;-75
2021/09/27 12:50:57;;;;;;;5.20;3.33;;;24.40;22.70;;;;;;4973991;28;20924;-77
2021/09/27 12:53:36;;;;;;;4.50;3.47;;;24.50;22.50;;;;;;4975587;28;20432;-76
2021/09/27 12:56:05;;;;;;;7.03;3.40;;;24.70;22.20;;;;;;4956653;28;20485;-76
2021/09/27 12:58:39;;;;;;;4.28;3.05;;;24.80;21.90;;;;;;4954134;28;20741;-77
2021/09/27 13:01:09;;;;;;;4.90;3.08;;;24.80;21.60;;;;;;4955196;29;20398;-76
2021/09/27 13:03:45;;;;;;;4.22;3.25;;;24.80;22.00;;;;;;4968311;28;20931;-76
2021/09/27 13:06:29;;;;;;;5.38;2.78;;;24.50;22.50;;;;;;4970272;28;20400;-76
2021/09/27 13:09:24;;;;;;;6.65;3.55;;;24.30;22.60;;;;;;4975453;28;20482;-76
2021/09/27 13:12:26;;;;;;;3.30;2.80;;;24.10;22.60;;;;;;4981972;28;20408;-76
2021/09/27 13:14:59;;;;;;;4.25;2.95;;;24.10;23.40;;;;;;4985723;28;20415;-75
2021/09/27 13:17:27;;;;;;;5.15;2.70;;;24.10;22.90;;;;;;5002079;28;20399;-76
2021/09/27 13:19:55;;;;;;;7.15;2.97;;;24.10;22.80;;;;;;5000295;28;20543;-76
2021/09/27 13:22:29;;;;;;;3.80;2.45;;;24.10;22.80;;;;;;4980861;28;20751;-77